createdAt,value
2022-11-12T00:02:46.212Z,15.15
2022-11-12T00:05:33.649Z,14.50
2022-11-12T00:08:20.575Z,13.93
2022-11-12T00:11:07.416Z,14.65
2022-11-12T00:13:53.965Z,15.07
2022-11-12T00:16:40.683Z,17.00
2022-11-12T00:19:30.240Z,16.55
2022-11-12T00:22:16.754Z,18.88
2022-11-12T00:25:04.068Z,18.67
2022-11-12T00:27:50.671Z,20.45
2022-11-12T00:30:41.184Z,16.80
2022-11-12T00:33:27.608Z,19.42
2022-11-12T00:36:14.042Z,19.60
2022-11-12T00:39:00.557Z,20.80
2022-11-12T00:41:47.032Z,21.00
2022-11-12T00:44:33.717Z,22.50
2022-11-12T00:47:20.763Z,20.98
2022-11-12T00:50:07.719Z,21.80
2022-11-12T00:52:55.021Z,20.65
2022-11-12T00:55:41.961Z,21.80
2022-11-12T00:58:34.062Z,20.52
2022-11-12T01:01:21.295Z,19.48
2022-11-12T01:04:08.947Z,20.10
2022-11-12T01:06:55.762Z,18.27
2022-11-12T01:09:42.605Z,17.98
2022-11-12T01:12:32.408Z,17.42
2022-11-12T01:15:19.104Z,16.98
2022-11-12T01:18:05.405Z,15.45
2022-11-12T01:20:51.901Z,14.15
2022-11-12T01:23:41.740Z,13.50
2022-11-12T01:26:28.696Z,12.30
2022-11-12T01:29:15.370Z,13.18
2022-11-12T01:32:01.847Z,13.15
2022-11-12T01:34:50.220Z,12.32
2022-11-12T01:37:36.995Z,12.10
2022-11-12T01:40:23.379Z,11.52
2022-11-12T01:43:14.199Z,12.32
2022-11-12T01:46:04.623Z,10.40
2022-11-12T01:48:59.600Z,10.93
2022-11-12T01:51:50.338Z,11.00
2022-11-12T01:54:37.957Z,9.73
2022-11-12T01:57:37.143Z,9.18
2022-11-12T02:00:24.173Z,9.60
2022-11-12T02:03:16.321Z,9.57
2022-11-12T02:06:11.062Z,10.55
2022-11-12T02:08:58.535Z,9.52
2022-11-12T02:11:45.328Z,9.40
2022-11-12T02:14:35.139Z,10.20
2022-11-12T02:17:21.915Z,9.77
2022-11-12T02:20:13.285Z,8.90
2022-11-12T02:23:00.013Z,8.93
2022-11-12T02:25:47.606Z,10.80
2022-11-12T02:28:34.509Z,12.02
2022-11-12T02:31:21.155Z,11.90
2022-11-12T02:34:07.760Z,11.77
2022-11-12T02:36:54.189Z,12.85
2022-11-12T02:39:40.631Z,12.75
2022-11-12T02:42:27.227Z,13.45
2022-11-12T02:45:14.917Z,13.70
2022-11-12T02:48:01.783Z,13.55
2022-11-12T02:50:48.679Z,14.52
2022-11-12T02:53:35.320Z,12.88
2022-11-12T02:56:21.876Z,13.27
2022-11-12T02:59:08.433Z,12.57
2022-11-12T03:01:54.832Z,13.00
2022-11-12T03:04:44.340Z,12.57
2022-11-12T03:07:34.789Z,12.45
2022-11-12T03:10:21.311Z,10.98
2022-11-12T03:13:07.747Z,11.80
2022-11-12T03:16:02.919Z,11.73
2022-11-12T03:18:49.697Z,10.02
2022-11-12T03:21:38.979Z,10.60
2022-11-12T03:24:25.785Z,10.45
2022-11-12T03:27:12.503Z,11.20
2022-11-12T03:29:58.886Z,10.65
2022-11-12T03:32:45.355Z,10.50
2022-11-12T03:35:32.245Z,10.75
2022-11-12T03:38:21.501Z,13.00
2022-11-12T03:41:08.209Z,12.00
2022-11-12T03:43:54.810Z,11.95
2022-11-12T03:46:44.229Z,11.93
2022-11-12T03:49:31.080Z,11.70
2022-11-12T03:52:17.612Z,11.18
2022-11-12T03:55:05.540Z,11.68
2022-11-12T03:57:56.264Z,10.40
2022-11-12T04:00:43.272Z,9.70
2022-11-12T04:03:29.916Z,10.25
2022-11-12T04:06:35.534Z,10.10
2022-11-12T04:09:23.174Z,9.88
2022-11-12T04:12:28.459Z,10.60
2022-11-12T04:15:15.388Z,10.70
2022-11-12T04:18:20.680Z,10.80
2022-11-12T04:21:27.751Z,12.18
2022-11-12T04:24:34.548Z,11.55
2022-11-12T04:27:29.745Z,11.65
2022-11-12T04:30:16.619Z,11.57
2022-11-12T04:33:03.306Z,11.43
2022-11-12T04:35:49.712Z,11.20
2022-11-12T04:38:36.275Z,11.52
2022-11-12T04:41:41.441Z,11.25
2022-11-12T04:44:46.707Z,11.32
2022-11-12T04:47:37.211Z,12.27
2022-11-12T04:50:24.029Z,11.63
2022-11-12T04:53:10.851Z,12.07
2022-11-12T04:55:59.077Z,13.18
2022-11-12T04:58:45.832Z,11.57
2022-11-12T05:01:32.711Z,12.45
2022-11-12T05:04:19.570Z,11.75
2022-11-12T05:07:06.535Z,11.15
2022-11-12T05:09:53.020Z,11.45
2022-11-12T05:12:39.698Z,10.50
2022-11-12T05:15:26.481Z,10.68
2022-11-12T05:18:13.039Z,11.13
2022-11-12T05:21:19.448Z,9.35
2022-11-12T05:24:06.333Z,11.25
2022-11-12T05:26:53.502Z,10.65
2022-11-12T05:29:41.263Z,11.02
2022-11-12T05:32:27.925Z,10.50
2022-11-12T05:35:14.711Z,10.25
2022-11-12T05:38:01.333Z,10.50
2022-11-12T05:40:47.798Z,9.40
2022-11-12T05:43:34.320Z,9.65
2022-11-12T05:46:21.742Z,9.93
2022-11-12T05:49:10.635Z,9.95
2022-11-12T05:51:57.192Z,10.35
2022-11-12T05:54:43.582Z,9.85
2022-11-12T05:57:32.750Z,10.05
2022-11-12T06:00:19.576Z,9.90
2022-11-12T06:03:09.974Z,9.57
2022-11-12T06:05:56.646Z,9.68
2022-11-12T06:08:43.324Z,9.20
2022-11-12T06:11:29.977Z,10.65
2022-11-12T06:14:16.502Z,9.32
2022-11-12T06:17:03.003Z,9.15
2022-11-12T06:19:49.497Z,11.73
2022-11-12T06:22:36.064Z,9.75
2022-11-12T06:25:22.946Z,9.60
2022-11-12T06:28:09.284Z,10.00
2022-11-12T06:30:56.253Z,9.85
2022-11-12T06:33:44.717Z,10.75
2022-11-12T06:36:32.271Z,9.30
2022-11-12T06:39:18.728Z,8.80
2022-11-12T06:42:05.425Z,10.50
2022-11-12T06:44:51.940Z,10.35
2022-11-12T06:47:38.346Z,10.48
2022-11-12T06:50:25.277Z,9.70
2022-11-12T06:53:11.616Z,11.98
2022-11-12T06:56:03.490Z,11.68
2022-11-12T06:58:50.211Z,10.48
2022-11-12T07:01:36.723Z,9.68
2022-11-12T07:04:25.474Z,10.23
2022-11-12T07:07:13.340Z,9.85
2022-11-12T07:10:00.242Z,9.43
2022-11-12T07:12:53.040Z,9.80
2022-11-12T07:15:40.234Z,9.38
2022-11-12T07:18:28.108Z,10.43
2022-11-12T07:21:18.274Z,10.80
2022-11-12T07:24:05.027Z,10.48
2022-11-12T07:26:52.506Z,9.90
2022-11-12T07:29:48.546Z,12.68
2022-11-12T07:32:41.604Z,10.57
2022-11-12T07:35:30.239Z,11.85
2022-11-12T07:38:16.820Z,11.10
2022-11-12T07:41:08.802Z,10.27
2022-11-12T07:43:55.442Z,9.50
2022-11-12T07:46:42.167Z,9.80
2022-11-12T07:49:28.634Z,9.60
2022-11-12T07:52:15.162Z,10.30
2022-11-12T07:55:01.591Z,10.40
2022-11-12T07:57:48.098Z,10.10
2022-11-12T08:00:34.561Z,10.85
2022-11-12T08:03:21.691Z,11.20
2022-11-12T08:06:09.040Z,9.88
2022-11-12T08:08:57.176Z,11.93
2022-11-12T08:11:43.908Z,11.13
2022-11-12T08:14:30.531Z,10.98
2022-11-12T08:17:16.859Z,10.88
2022-11-12T08:20:03.481Z,14.13
2022-11-12T08:22:51.260Z,13.73
2022-11-12T08:25:40.163Z,13.00
2022-11-12T08:28:30.872Z,12.18
2022-11-12T08:31:22.756Z,14.25
2022-11-12T08:34:12.529Z,12.80
2022-11-12T08:36:59.113Z,11.70
2022-11-12T08:39:45.995Z,11.70
2022-11-12T08:42:32.401Z,11.65
2022-11-12T08:45:19.804Z,12.20
2022-11-12T08:48:09.245Z,12.18
2022-11-12T08:50:56.720Z,12.57
2022-11-12T08:53:43.265Z,12.57
2022-11-12T08:56:30.098Z,13.13
2022-11-12T08:59:16.889Z,14.02
2022-11-12T09:02:03.538Z,13.65
2022-11-12T09:04:50.135Z,14.10
2022-11-12T09:07:49.389Z,14.10
2022-11-12T09:10:39.615Z,12.25
2022-11-12T09:13:26.472Z,14.85
2022-11-12T09:16:13.431Z,14.43
2022-11-12T09:18:59.849Z,13.57
2022-11-12T09:21:46.694Z,12.82
2022-11-12T09:24:33.231Z,13.65
2022-11-12T09:27:19.711Z,12.90
2022-11-12T09:30:06.886Z,14.63
2022-11-12T09:32:58.506Z,14.32
2022-11-12T09:35:48.957Z,14.68
2022-11-12T09:38:35.719Z,14.35
2022-11-12T09:41:41.574Z,15.35
2022-11-12T09:44:32.898Z,15.20
2022-11-12T09:47:38.603Z,14.85
2022-11-12T09:50:28.507Z,14.48
2022-11-12T09:53:30.294Z,15.07
2022-11-12T09:56:19.569Z,15.95
2022-11-12T09:59:13.592Z,15.70
2022-11-12T10:02:18.148Z,15.50
2022-11-12T10:05:26.561Z,14.05
2022-11-12T10:08:32.640Z,14.10
2022-11-12T10:11:55.987Z,14.77
2022-11-12T10:15:20.745Z,13.82
2022-11-12T10:18:13.016Z,14.20
2022-11-12T10:21:27.735Z,14.73
2022-11-12T10:24:14.592Z,15.05
2022-11-12T10:27:03.073Z,14.68
2022-11-12T10:30:06.087Z,14.07
2022-11-12T10:32:53.636Z,13.90
2022-11-12T10:35:41.047Z,14.30
2022-11-12T10:38:29.081Z,15.38
2022-11-12T10:41:35.012Z,14.82
2022-11-12T10:44:27.870Z,14.00
2022-11-12T10:47:20.451Z,14.45
2022-11-12T10:50:10.313Z,14.25
2022-11-12T10:53:10.375Z,14.50
2022-11-12T10:56:04.031Z,13.68
2022-11-12T10:59:17.957Z,14.93
2022-11-12T11:02:15.411Z,14.60
2022-11-12T11:05:40.183Z,13.10
2022-11-12T11:11:32.082Z,13.13
2022-11-12T11:14:30.620Z,14.30
2022-11-12T11:17:19.207Z,13.65
2022-11-12T11:20:19.255Z,15.95
2022-11-12T11:23:46.759Z,15.40
2022-11-12T11:26:52.541Z,17.10
2022-11-12T11:30:03.282Z,16.40
2022-11-12T11:33:28.313Z,15.60
2022-11-12T11:36:47.711Z,15.98
2022-11-12T11:39:57.675Z,17.20
2022-11-12T11:43:05.293Z,16.73
2022-11-12T11:46:03.728Z,16.35
2022-11-12T11:49:02.157Z,16.33
2022-11-12T11:52:07.203Z,17.40
2022-11-12T11:55:18.799Z,16.67
2022-11-12T11:58:17.201Z,17.63
2022-11-12T12:01:26.473Z,18.67
2022-11-12T12:04:33.762Z,18.25
2022-11-12T12:07:41.981Z,19.75
2022-11-12T12:11:08.956Z,18.38
2022-11-12T12:14:02.256Z,17.60
2022-11-12T12:17:30.675Z,18.45
2022-11-12T12:20:27.030Z,18.63
2022-11-12T12:23:33.248Z,18.52
2022-11-12T12:26:36.051Z,17.60
2022-11-12T12:29:37.247Z,17.40
2022-11-12T12:32:36.091Z,20.00
2022-11-12T12:35:31.436Z,21.42
2022-11-12T12:38:38.625Z,18.00
2022-11-12T12:41:53.564Z,19.80
2022-11-12T12:45:05.870Z,19.33
2022-11-12T12:47:54.010Z,20.08
2022-11-12T12:50:42.826Z,23.15
2022-11-12T12:53:29.706Z,22.98
2022-11-12T12:56:23.662Z,24.10
2022-11-12T12:59:23.929Z,26.23
2022-11-12T13:02:24.479Z,23.48
2022-11-12T13:05:35.558Z,23.40
2022-11-12T13:08:26.598Z,24.75
2022-11-12T13:12:01.125Z,26.38
2022-11-12T13:15:10.621Z,27.08
2022-11-12T13:17:57.451Z,27.38
2022-11-12T13:21:12.336Z,25.77
2022-11-12T13:24:08.807Z,27.20
2022-11-12T13:27:01.466Z,23.35
2022-11-12T13:29:48.595Z,24.33
2022-11-12T13:32:49.686Z,24.70
2022-11-12T13:35:42.802Z,23.55
2022-11-12T13:38:29.871Z,23.43
2022-11-12T13:41:40.259Z,24.38
2022-11-12T13:44:28.853Z,24.20
2022-11-12T13:47:21.572Z,21.90
2022-11-12T13:50:13.552Z,21.60
2022-11-12T13:53:00.603Z,21.13
2022-11-12T13:55:52.192Z,21.52
2022-11-12T13:58:44.096Z,20.13
2022-11-12T14:01:32.547Z,21.08
2022-11-12T14:04:23.931Z,20.23
2022-11-12T14:07:25.314Z,20.67
2022-11-12T14:10:45.972Z,21.27
2022-11-12T14:13:54.186Z,20.38
2022-11-12T14:17:07.904Z,22.15
2022-11-12T14:20:18.783Z,22.07
2022-11-12T14:23:24.753Z,20.88
2022-11-12T14:26:13.273Z,20.75
2022-11-12T14:29:00.180Z,22.00
2022-11-12T14:31:47.235Z,21.35
2022-11-12T14:34:35.018Z,21.65
2022-11-12T14:37:43.070Z,21.67
2022-11-12T14:40:51.730Z,21.73
2022-11-12T14:43:47.101Z,22.58
2022-11-12T14:46:33.812Z,22.17
2022-11-12T14:49:39.393Z,23.20
2022-11-12T14:52:40.713Z,22.40
2022-11-12T14:55:32.480Z,23.15
2022-11-12T14:58:20.825Z,21.20
2022-11-12T15:02:03.782Z,21.90
2022-11-12T15:04:40.947Z,21.48
2022-11-12T15:07:34.291Z,22.98
2022-11-12T15:10:38.755Z,22.13
2022-11-12T15:16:30.426Z,20.38
2022-11-12T15:19:28.625Z,21.80
2022-11-12T15:22:22.116Z,21.08
2022-11-12T15:25:28.901Z,26.45
2022-11-12T15:28:23.721Z,23.38
2022-11-12T15:31:20.086Z,22.33
2022-11-12T15:34:31.417Z,23.10
2022-11-12T15:37:21.091Z,24.65
2022-11-12T15:40:18.967Z,22.90
2022-11-12T15:43:18.517Z,23.65
2022-11-12T15:46:05.380Z,23.35
2022-11-12T15:48:55.994Z,23.73
2022-11-12T15:51:43.047Z,24.17
2022-11-12T15:54:30.952Z,24.88
2022-11-12T15:57:25.029Z,24.00
2022-11-12T16:00:17.077Z,25.27
2022-11-12T16:03:17.276Z,25.23
2022-11-12T16:06:08.608Z,25.98
2022-11-12T16:08:55.665Z,23.15
2022-11-12T16:11:42.159Z,25.38
2022-11-12T16:14:29.164Z,25.45
2022-11-12T16:17:17.774Z,26.52
2022-11-12T16:20:21.432Z,24.92
2022-11-12T16:23:11.099Z,25.63
2022-11-12T16:25:57.631Z,23.52
2022-11-12T16:28:44.885Z,24.50
2022-11-12T16:31:31.394Z,24.90
2022-11-12T16:34:17.922Z,25.75
2022-11-12T16:37:04.723Z,23.73
2022-11-12T16:39:51.163Z,24.90
2022-11-12T16:42:37.548Z,24.88
2022-11-12T16:45:31.880Z,24.05
2022-11-12T16:48:21.353Z,24.20
2022-11-12T16:51:18.384Z,24.92
2022-11-12T16:54:05.268Z,25.52
2022-11-12T16:56:53.244Z,25.17
2022-11-12T16:59:39.810Z,27.38
2022-11-12T17:02:26.605Z,24.27
2022-11-12T17:05:18.247Z,25.88
2022-11-12T17:08:04.795Z,24.77
2022-11-12T17:10:51.337Z,24.70
2022-11-12T17:13:39.119Z,23.77
2022-11-12T17:16:25.938Z,27.80
2022-11-12T17:19:12.825Z,40.97
2022-11-12T17:21:59.616Z,36.22
2022-11-12T17:24:47.312Z,28.25
2022-11-12T17:27:34.057Z,26.42
2022-11-12T17:30:20.538Z,27.25
2022-11-12T17:33:06.970Z,26.23
2022-11-12T17:35:53.555Z,27.20
2022-11-12T17:38:44.509Z,26.70
2022-11-12T17:41:31.134Z,25.35
2022-11-12T17:44:21.563Z,26.00
2022-11-12T17:47:08.214Z,26.83
2022-11-12T17:49:54.755Z,27.20
2022-11-12T17:52:41.772Z,25.33
2022-11-12T17:55:29.101Z,25.70
2022-11-12T17:58:15.758Z,25.88
2022-11-12T18:01:12.723Z,26.55
2022-11-12T18:04:00.009Z,27.02
2022-11-12T18:06:46.597Z,26.48
2022-11-12T18:09:33.408Z,27.10
2022-11-12T18:12:20.098Z,25.65
2022-11-12T18:15:08.147Z,28.25
2022-11-12T18:17:54.970Z,25.85
2022-11-12T18:20:42.591Z,27.67
2022-11-12T18:23:29.738Z,26.88
2022-11-12T18:26:18.798Z,27.25
2022-11-12T18:29:07.374Z,28.15
2022-11-12T18:31:54.259Z,28.70
2022-11-12T18:34:45.005Z,29.83
2022-11-12T18:37:31.866Z,29.98
2022-11-12T18:40:19.683Z,31.40
2022-11-12T18:43:06.164Z,33.22
2022-11-12T18:45:59.147Z,37.80
2022-11-12T18:48:46.059Z,43.75
2022-11-12T18:51:32.970Z,37.75
2022-11-12T18:54:19.735Z,32.67
2022-11-12T18:57:06.424Z,31.77
2022-11-12T18:59:55.018Z,35.20
2022-11-12T19:02:41.934Z,32.80
2022-11-12T19:05:28.452Z,34.53
2022-11-12T19:08:15.352Z,33.80
2022-11-12T19:11:04.875Z,33.55
2022-11-12T19:13:53.333Z,33.30
2022-11-12T19:16:44.597Z,32.70
2022-11-12T19:19:31.565Z,32.13
2022-11-12T19:22:17.956Z,32.60
2022-11-12T19:25:04.577Z,32.85
2022-11-12T19:27:52.461Z,33.08
2022-11-12T19:30:39.215Z,32.83
2022-11-12T19:33:25.730Z,34.10
2022-11-12T19:36:26.053Z,33.38
2022-11-12T19:39:12.398Z,32.78
2022-11-12T19:41:58.915Z,30.73
2022-11-12T19:44:45.339Z,37.00
2022-11-12T19:47:31.952Z,32.35
2022-11-12T19:50:23.485Z,29.30
2022-11-12T19:53:11.182Z,27.63
2022-11-12T19:56:01.028Z,26.45
2022-11-12T19:58:48.952Z,25.48
2022-11-12T20:01:36.481Z,23.60
2022-11-12T20:04:24.457Z,21.33
2022-11-12T20:07:11.319Z,21.20
2022-11-12T20:10:01.088Z,21.48
2022-11-12T20:12:48.062Z,22.83
2022-11-12T20:15:37.439Z,23.67
2022-11-12T20:18:24.552Z,23.42
2022-11-12T20:21:11.518Z,21.90
2022-11-12T20:23:58.048Z,21.95
2022-11-12T20:26:44.709Z,25.27
2022-11-12T20:29:31.804Z,25.08
2022-11-12T20:32:19.210Z,22.45
2022-11-12T20:35:15.159Z,22.50
2022-11-12T20:38:05.312Z,22.23
2022-11-12T20:40:58.707Z,21.73
2022-11-12T20:43:45.968Z,20.30
2022-11-12T20:46:32.703Z,17.98
2022-11-12T20:49:19.274Z,19.23
2022-11-12T20:52:05.826Z,17.50
2022-11-12T20:54:52.377Z,17.27
2022-11-12T20:57:38.864Z,16.50
2022-11-12T21:00:25.531Z,15.68
2022-11-12T21:03:12.164Z,16.17
2022-11-12T21:06:03.681Z,17.38
2022-11-12T21:08:50.547Z,16.77
2022-11-12T21:11:37.339Z,16.48
2022-11-12T21:14:24.009Z,16.48
2022-11-12T21:17:10.519Z,18.42
2022-11-12T21:19:57.277Z,18.35
2022-11-12T21:22:44.653Z,19.55
2022-11-12T21:25:34.800Z,20.08
2022-11-12T21:28:21.250Z,20.95
2022-11-12T21:31:10.601Z,18.88
2022-11-12T21:34:04.341Z,20.48
2022-11-12T21:36:50.997Z,22.45
2022-11-12T21:39:37.499Z,24.25
2022-11-12T21:42:23.944Z,24.50
2022-11-12T21:45:11.216Z,20.95
2022-11-12T21:48:00.428Z,22.27
2022-11-12T21:50:47.111Z,20.42
2022-11-12T21:53:34.106Z,27.75
2022-11-12T21:56:20.844Z,29.15
2022-11-12T21:59:07.614Z,29.45
2022-11-12T22:01:54.044Z,25.40
2022-11-12T22:04:43.508Z,24.40
2022-11-12T22:07:31.111Z,25.08
2022-11-12T22:10:18.265Z,24.33
2022-11-12T22:13:25.788Z,23.52
2022-11-12T22:16:22.659Z,24.10
2022-11-12T22:19:09.731Z,24.45
2022-11-12T22:21:56.748Z,25.35
2022-11-12T22:24:43.433Z,25.98
2022-11-12T22:27:33.848Z,26.30
2022-11-12T22:30:20.264Z,28.65
2022-11-12T22:33:06.895Z,29.08
2022-11-12T22:35:53.687Z,28.52
2022-11-12T22:38:45.330Z,27.05
2022-11-12T22:41:32.635Z,25.60
2022-11-12T22:44:19.996Z,26.38
2022-11-12T22:47:06.544Z,26.00
2022-11-12T22:49:53.068Z,22.98
2022-11-12T22:52:39.780Z,23.60
2022-11-12T22:55:26.274Z,22.75
2022-11-12T22:58:13.779Z,23.10
2022-11-12T23:01:00.477Z,22.33
2022-11-12T23:03:47.796Z,21.52
2022-11-12T23:06:34.689Z,21.10
2022-11-12T23:09:21.273Z,21.17
2022-11-12T23:12:07.959Z,19.98
2022-11-12T23:14:54.497Z,21.40
2022-11-12T23:17:40.978Z,20.33
2022-11-12T23:20:27.607Z,20.13
2022-11-12T23:23:14.143Z,20.77
2022-11-12T23:26:08.185Z,20.40
2022-11-12T23:28:54.613Z,19.55
2022-11-12T23:31:41.484Z,18.98
2022-11-12T23:34:28.172Z,19.17
2022-11-12T23:37:14.613Z,17.90
2022-11-12T23:40:01.263Z,18.48
2022-11-12T23:42:47.941Z,17.95
2022-11-12T23:45:40.558Z,17.63
2022-11-12T23:48:27.805Z,14.77
2022-11-12T23:51:17.088Z,5.80
2022-11-12T23:54:03.746Z,1.75
2022-11-12T23:56:52.667Z,1.23
2022-11-12T23:59:39.263Z,1.10
